sensor_id;sensor_type;location;lat;lon;timestamp;pressure;altitude;pressure_sealevel;temperature;humidity
35888;BME280;21990;42.540;23.496;2023-03-26T00:01:12;92959.06;;;9.32;81.54
35888;BME280;21990;42.540;23.496;2023-03-26T00:03:40;92967.06;;;9.28;81.27
35888;BME280;21990;42.540;23.496;2023-03-26T00:08:33;92967.28;;;9.30;80.40
35888;BME280;21990;42.540;23.496;2023-03-26T00:11:00;92973.88;;;9.32;79.69
35888;BME280;21990;42.540;23.496;2023-03-26T00:13:25;92980.16;;;9.25;79.70
35888;BME280;21990;42.540;23.496;2023-03-26T00:15:51;92959.47;;;9.23;80.01
35888;BME280;21990;42.540;23.496;2023-03-26T00:18:17;92974.41;;;9.18;80.24
35888;BME280;21990;42.540;23.496;2023-03-26T00:20:46;92979.59;;;9.14;80.23
35888;BME280;21990;42.540;23.496;2023-03-26T00:23:11;92994.69;;;9.11;80.79
35888;BME280;21990;42.540;23.496;2023-03-26T00:25:37;92985.75;;;9.12;80.54
35888;BME280;21990;42.540;23.496;2023-03-26T00:28:06;92982.16;;;9.12;80.91
35888;BME280;21990;42.540;23.496;2023-03-26T00:30:32;92969.72;;;9.07;81.24
35888;BME280;21990;42.540;23.496;2023-03-26T00:33:00;92979.03;;;9.02;81.00
35888;BME280;21990;42.540;23.496;2023-03-26T00:35:26;92974.38;;;9.04;81.07
35888;BME280;21990;42.540;23.496;2023-03-26T00:37:53;92961.16;;;8.99;81.14
35888;BME280;21990;42.540;23.496;2023-03-26T00:40:19;92950.38;;;9.03;81.09
35888;BME280;21990;42.540;23.496;2023-03-26T00:42:45;92954.38;;;9.08;80.69
35888;BME280;21990;42.540;23.496;2023-03-26T00:45:11;92957.94;;;9.09;80.76
35888;BME280;21990;42.540;23.496;2023-03-26T00:47:36;92960.25;;;9.10;80.59
35888;BME280;21990;42.540;23.496;2023-03-26T00:50:05;92949.00;;;9.10;80.49
35888;BME280;21990;42.540;23.496;2023-03-26T00:52:31;92948.13;;;9.15;80.66
35888;BME280;21990;42.540;23.496;2023-03-26T00:54:57;92949.63;;;9.16;80.40
35888;BME280;21990;42.540;23.496;2023-03-26T00:57:23;92957.97;;;9.22;80.87
35888;BME280;21990;42.540;23.496;2023-03-26T00:59:55;92954.94;;;9.20;80.28
35888;BME280;21990;42.540;23.496;2023-03-26T01:02:21;92962.28;;;9.23;80.87
35888;BME280;21990;42.540;23.496;2023-03-26T01:04:52;92964.34;;;9.22;81.09
35888;BME280;21990;42.540;23.496;2023-03-26T01:07:21;92960.25;;;9.23;80.61
35888;BME280;21990;42.540;23.496;2023-03-26T01:09:55;92964.25;;;9.28;80.93
35888;BME280;21990;42.540;23.496;2023-03-26T01:12:25;92973.75;;;9.25;81.12
35888;BME280;21990;42.540;23.496;2023-03-26T01:14:54;92972.47;;;9.26;80.97
35888;BME280;21990;42.540;23.496;2023-03-26T01:17:22;92969.88;;;9.28;81.16
35888;BME280;21990;42.540;23.496;2023-03-26T01:20:15;92968.66;;;9.23;81.35
35888;BME280;21990;42.540;23.496;2023-03-26T01:22:48;92965.84;;;9.23;81.63
35888;BME280;21990;42.540;23.496;2023-03-26T01:25:16;92964.78;;;9.26;81.39
35888;BME280;21990;42.540;23.496;2023-03-26T01:27:53;92970.84;;;9.17;81.83
35888;BME280;21990;42.540;23.496;2023-03-26T01:33:22;92970.69;;;8.96;82.35
35888;BME280;21990;42.540;23.496;2023-03-26T01:38:34;92983.00;;;8.93;81.99
35888;BME280;21990;42.540;23.496;2023-03-26T01:41:06;92980.94;;;8.94;82.26
35888;BME280;21990;42.540;23.496;2023-03-26T01:43:48;92983.63;;;8.86;82.51
35888;BME280;21990;42.540;23.496;2023-03-26T01:46:16;92977.25;;;8.86;82.43
35888;BME280;21990;42.540;23.496;2023-03-26T01:48:45;92981.03;;;8.88;82.70
35888;BME280;21990;42.540;23.496;2023-03-26T01:51:12;92975.41;;;8.88;82.52
35888;BME280;21990;42.540;23.496;2023-03-26T01:53:46;92979.94;;;8.91;82.53
35888;BME280;21990;42.540;23.496;2023-03-26T01:56:40;92974.22;;;8.84;83.01
35888;BME280;21990;42.540;23.496;2023-03-26T01:59:13;92961.09;;;8.73;82.49
35888;BME280;21990;42.540;23.496;2023-03-26T02:01:53;92973.03;;;8.79;82.11
35888;BME280;21990;42.540;23.496;2023-03-26T02:07:32;92979.31;;;8.85;81.90
35888;BME280;21990;42.540;23.496;2023-03-26T02:10:22;92983.31;;;8.90;81.86
35888;BME280;21990;42.540;23.496;2023-03-26T02:12:48;92969.25;;;8.90;81.71
35888;BME280;21990;42.540;23.496;2023-03-26T02:15:14;92968.59;;;8.84;81.49
35888;BME280;21990;42.540;23.496;2023-03-26T02:17:40;92973.88;;;8.87;81.40
35888;BME280;21990;42.540;23.496;2023-03-26T02:20:10;92972.41;;;8.86;81.51
35888;BME280;21990;42.540;23.496;2023-03-26T02:22:39;92982.88;;;8.86;81.85
35888;BME280;21990;42.540;23.496;2023-03-26T02:25:19;92983.63;;;8.86;81.82
35888;BME280;21990;42.540;23.496;2023-03-26T02:27:48;92981.88;;;8.83;81.78
35888;BME280;21990;42.540;23.496;2023-03-26T02:30:17;92970.94;;;8.80;82.03
35888;BME280;21990;42.540;23.496;2023-03-26T02:32:43;92959.38;;;8.70;82.02
35888;BME280;21990;42.540;23.496;2023-03-26T02:35:10;92960.78;;;8.77;82.37
35888;BME280;21990;42.540;23.496;2023-03-26T02:37:36;92960.34;;;8.73;82.08
35888;BME280;21990;42.540;23.496;2023-03-26T02:40:03;92961.63;;;8.72;82.05
35888;BME280;21990;42.540;23.496;2023-03-26T02:42:35;92958.38;;;8.68;82.21
35888;BME280;21990;42.540;23.496;2023-03-26T02:45:01;92960.66;;;8.69;81.86
35888;BME280;21990;42.540;23.496;2023-03-26T02:47:26;92958.25;;;8.60;81.68
35888;BME280;21990;42.540;23.496;2023-03-26T02:49:52;92972.00;;;8.64;82.15
35888;BME280;21990;42.540;23.496;2023-03-26T02:52:17;92974.25;;;8.65;81.88
35888;BME280;21990;42.540;23.496;2023-03-26T02:54:43;92982.94;;;8.67;81.42
35888;BME280;21990;42.540;23.496;2023-03-26T02:57:08;92986.91;;;8.72;81.38
35888;BME280;21990;42.540;23.496;2023-03-26T02:59:34;92980.19;;;8.62;81.73
35888;BME280;21990;42.540;23.496;2023-03-26T03:02:00;92987.34;;;8.63;81.40
35888;BME280;21990;42.540;23.496;2023-03-26T03:04:25;92986.03;;;8.64;81.39
35888;BME280;21990;42.540;23.496;2023-03-26T03:06:51;92994.69;;;8.66;81.75
35888;BME280;21990;42.540;23.496;2023-03-26T03:09:22;93000.31;;;8.66;81.57
35888;BME280;21990;42.540;23.496;2023-03-26T03:11:49;93014.66;;;8.62;81.97
35888;BME280;21990;42.540;23.496;2023-03-26T03:14:19;93008.34;;;8.56;82.38
35888;BME280;21990;42.540;23.496;2023-03-26T03:16:45;93021.50;;;8.48;82.90
35888;BME280;21990;42.540;23.496;2023-03-26T03:19:11;92997.75;;;8.49;82.73
35888;BME280;21990;42.540;23.496;2023-03-26T03:21:37;93001.31;;;8.49;82.79
35888;BME280;21990;42.540;23.496;2023-03-26T03:24:02;93012.41;;;8.42;82.90
35888;BME280;21990;42.540;23.496;2023-03-26T03:26:28;93023.31;;;8.45;82.94
35888;BME280;21990;42.540;23.496;2023-03-26T03:28:56;93023.78;;;8.49;82.56
35888;BME280;21990;42.540;23.496;2023-03-26T03:31:23;93021.72;;;8.50;82.52
35888;BME280;21990;42.540;23.496;2023-03-26T03:33:49;93021.97;;;8.52;82.50
35888;BME280;21990;42.540;23.496;2023-03-26T03:36:18;93033.72;;;8.50;82.82
35888;BME280;21990;42.540;23.496;2023-03-26T03:38:46;93030.47;;;8.46;82.79
35888;BME280;21990;42.540;23.496;2023-03-26T03:41:12;93035.53;;;8.48;82.65
35888;BME280;21990;42.540;23.496;2023-03-26T03:43:38;93024.59;;;8.44;82.95
35888;BME280;21990;42.540;23.496;2023-03-26T03:46:03;93035.09;;;8.44;83.12
35888;BME280;21990;42.540;23.496;2023-03-26T03:48:29;93039.94;;;8.43;83.00
35888;BME280;21990;42.540;23.496;2023-03-26T03:50:55;93034.94;;;8.36;83.36
35888;BME280;21990;42.540;23.496;2023-03-26T03:53:21;93042.38;;;8.34;83.26
35888;BME280;21990;42.540;23.496;2023-03-26T03:55:56;93032.97;;;8.31;83.59
35888;BME280;21990;42.540;23.496;2023-03-26T03:58:24;93055.44;;;8.31;84.02
35888;BME280;21990;42.540;23.496;2023-03-26T04:00:58;93039.88;;;8.30;83.82
35888;BME280;21990;42.540;23.496;2023-03-26T04:03:26;93040.13;;;8.27;83.80
35888;BME280;21990;42.540;23.496;2023-03-26T04:05:55;93050.91;;;8.23;84.34
35888;BME280;21990;42.540;23.496;2023-03-26T04:08:23;93050.38;;;8.24;84.25
35888;BME280;21990;42.540;23.496;2023-03-26T04:10:49;93059.13;;;8.21;84.61
35888;BME280;21990;42.540;23.496;2023-03-26T04:13:15;93063.97;;;8.20;84.23
35888;BME280;21990;42.540;23.496;2023-03-26T04:15:42;93056.81;;;8.19;84.11
35888;BME280;21990;42.540;23.496;2023-03-26T04:18:08;93077.16;;;8.25;83.91
35888;BME280;21990;42.540;23.496;2023-03-26T04:20:38;93073.31;;;8.28;83.89
35888;BME280;21990;42.540;23.496;2023-03-26T04:23:06;93086.31;;;8.26;84.21
35888;BME280;21990;42.540;23.496;2023-03-26T04:25:33;93085.34;;;8.23;83.96
35888;BME280;21990;42.540;23.496;2023-03-26T04:28:06;93099.09;;;8.27;84.12
35888;BME280;21990;42.540;23.496;2023-03-26T04:30:33;93095.75;;;8.28;84.12
35888;BME280;21990;42.540;23.496;2023-03-26T04:33:02;93108.16;;;8.38;83.85
35888;BME280;21990;42.540;23.496;2023-03-26T04:35:31;93096.00;;;8.30;84.10
35888;BME280;21990;42.540;23.496;2023-03-26T04:38:01;93101.38;;;8.28;84.28
35888;BME280;21990;42.540;23.496;2023-03-26T04:40:31;93112.34;;;8.26;84.63
35888;BME280;21990;42.540;23.496;2023-03-26T04:42:59;93113.16;;;8.21;84.97
35888;BME280;21990;42.540;23.496;2023-03-26T04:45:27;93116.44;;;8.25;84.78
35888;BME280;21990;42.540;23.496;2023-03-26T04:47:58;93122.59;;;8.24;84.96
35888;BME280;21990;42.540;23.496;2023-03-26T04:50:24;93129.69;;;8.30;84.57
35888;BME280;21990;42.540;23.496;2023-03-26T04:52:52;93133.00;;;8.29;84.91
35888;BME280;21990;42.540;23.496;2023-03-26T04:57:56;93125.63;;;8.26;85.22
35888;BME280;21990;42.540;23.496;2023-03-26T05:00:24;93136.81;;;8.31;85.07
35888;BME280;21990;42.540;23.496;2023-03-26T05:02:50;93143.41;;;8.34;84.61
35888;BME280;21990;42.540;23.496;2023-03-26T05:05:20;93138.63;;;8.29;84.94
35888;BME280;21990;42.540;23.496;2023-03-26T05:07:46;93149.78;;;8.34;84.69
35888;BME280;21990;42.540;23.496;2023-03-26T05:10:13;93142.44;;;8.31;84.98
35888;BME280;21990;42.540;23.496;2023-03-26T05:12:39;93148.25;;;8.33;84.47
35888;BME280;21990;42.540;23.496;2023-03-26T05:15:06;93130.72;;;8.27;83.94
35888;BME280;21990;42.540;23.496;2023-03-26T05:17:32;93145.75;;;8.30;83.53
35888;BME280;21990;42.540;23.496;2023-03-26T05:19:59;93152.94;;;8.25;83.15
35888;BME280;21990;42.540;23.496;2023-03-26T05:22:26;93151.38;;;8.30;83.28
35888;BME280;21990;42.540;23.496;2023-03-26T05:24:51;93152.59;;;8.34;82.45
35888;BME280;21990;42.540;23.496;2023-03-26T05:27:17;93155.34;;;8.40;82.04
35888;BME280;21990;42.540;23.496;2023-03-26T05:29:46;93151.53;;;8.37;81.31
35888;BME280;21990;42.540;23.496;2023-03-26T05:32:11;93165.22;;;8.46;80.74
35888;BME280;21990;42.540;23.496;2023-03-26T05:34:38;93163.19;;;8.47;80.49
35888;BME280;21990;42.540;23.496;2023-03-26T05:37:04;93165.59;;;8.56;80.56
35888;BME280;21990;42.540;23.496;2023-03-26T05:39:31;93156.13;;;8.59;80.00
35888;BME280;21990;42.540;23.496;2023-03-26T05:41:57;93158.84;;;8.65;78.95
35888;BME280;21990;42.540;23.496;2023-03-26T05:44:23;93161.91;;;8.67;78.37
35888;BME280;21990;42.540;23.496;2023-03-26T05:46:48;93160.47;;;8.79;78.92
35888;BME280;21990;42.540;23.496;2023-03-26T05:49:14;93156.38;;;8.98;77.97
35888;BME280;21990;42.540;23.496;2023-03-26T05:51:39;93170.72;;;9.14;77.06
35888;BME280;21990;42.540;23.496;2023-03-26T05:54:07;93165.56;;;9.31;76.81
35888;BME280;21990;42.540;23.496;2023-03-26T05:56:33;93168.69;;;9.91;81.64
35888;BME280;21990;42.540;23.496;2023-03-26T05:58:59;93181.09;;;10.93;80.77
35888;BME280;21990;42.540;23.496;2023-03-26T06:01:24;93177.78;;;11.15;73.67
35888;BME280;21990;42.540;23.496;2023-03-26T06:03:51;93180.78;;;12.06;71.11
35888;BME280;21990;42.540;23.496;2023-03-26T06:06:19;93179.59;;;12.78;69.95
35888;BME280;21990;42.540;23.496;2023-03-26T06:08:47;93167.75;;;13.16;70.58
35888;BME280;21990;42.540;23.496;2023-03-26T06:11:14;93171.72;;;14.02;64.76
35888;BME280;21990;42.540;23.496;2023-03-26T06:13:41;93170.97;;;13.94;67.16
35888;BME280;21990;42.540;23.496;2023-03-26T06:16:08;93165.69;;;14.73;66.60
35888;BME280;21990;42.540;23.496;2023-03-26T06:18:34;93180.72;;;15.14;62.64
35888;BME280;21990;42.540;23.496;2023-03-26T06:21:00;93174.06;;;15.74;67.25
35888;BME280;21990;42.540;23.496;2023-03-26T06:23:26;93167.94;;;16.84;56.60
35888;BME280;21990;42.540;23.496;2023-03-26T06:25:51;93167.28;;;17.11;58.48
35888;BME280;21990;42.540;23.496;2023-03-26T06:28:17;93159.53;;;17.55;56.44
35888;BME280;21990;42.540;23.496;2023-03-26T06:30:43;93163.50;;;17.42;50.60
35888;BME280;21990;42.540;23.496;2023-03-26T06:33:09;93167.59;;;17.49;55.25
35888;BME280;21990;42.540;23.496;2023-03-26T06:35:35;93172.47;;;17.73;51.02
35888;BME280;21990;42.540;23.496;2023-03-26T06:38:01;93175.06;;;17.44;53.98
35888;BME280;21990;42.540;23.496;2023-03-26T06:40:26;93177.16;;;16.92;51.11
35888;BME280;21990;42.540;23.496;2023-03-26T06:42:53;93181.19;;;16.40;51.05
35888;BME280;21990;42.540;23.496;2023-03-26T06:45:20;93178.06;;;16.53;54.75
35888;BME280;21990;42.540;23.496;2023-03-26T06:47:46;93165.44;;;16.88;49.75
35888;BME280;21990;42.540;23.496;2023-03-26T06:50:12;93160.31;;;16.20;52.70
35888;BME280;21990;42.540;23.496;2023-03-26T06:52:37;93162.50;;;16.96;54.32
35888;BME280;21990;42.540;23.496;2023-03-26T06:55:05;93153.28;;;17.05;50.42
35888;BME280;21990;42.540;23.496;2023-03-26T06:57:33;93165.69;;;17.17;51.75
35888;BME280;21990;42.540;23.496;2023-03-26T06:59:58;93156.56;;;17.70;52.74
35888;BME280;21990;42.540;23.496;2023-03-26T07:02:24;93158.06;;;18.61;48.33
35888;BME280;21990;42.540;23.496;2023-03-26T07:04:50;93168.72;;;18.24;50.45
35888;BME280;21990;42.540;23.496;2023-03-26T07:07:17;93160.09;;;18.15;49.61
35888;BME280;21990;42.540;23.496;2023-03-26T07:09:46;93177.03;;;18.39;49.60
35888;BME280;21990;42.540;23.496;2023-03-26T07:12:12;93185.09;;;18.33;46.58
35888;BME280;21990;42.540;23.496;2023-03-26T07:14:38;93181.41;;;17.35;44.55
35888;BME280;21990;42.540;23.496;2023-03-26T07:17:04;93195.44;;;16.65;47.25
35888;BME280;21990;42.540;23.496;2023-03-26T07:19:30;93193.03;;;16.53;50.43
35888;BME280;21990;42.540;23.496;2023-03-26T07:21:55;93192.94;;;16.69;51.95
35888;BME280;21990;42.540;23.496;2023-03-26T07:24:21;93191.22;;;16.66;49.06
35888;BME280;21990;42.540;23.496;2023-03-26T07:27:27;93189.81;;;16.00;47.89
35888;BME280;21990;42.540;23.496;2023-03-26T07:30:07;93179.94;;;15.68;52.61
35888;BME280;21990;42.540;23.496;2023-03-26T07:32:39;93184.03;;;15.83;51.73
35888;BME280;21990;42.540;23.496;2023-03-26T07:35:23;93168.13;;;16.37;53.25
35888;BME280;21990;42.540;23.496;2023-03-26T07:46:02;93174.31;;;16.92;48.60
35888;BME280;21990;42.540;23.496;2023-03-26T07:48:43;93160.50;;;17.06;49.03
35888;BME280;21990;42.540;23.496;2023-03-26T07:51:10;93159.09;;;17.15;46.45
35888;BME280;21990;42.540;23.496;2023-03-26T07:53:36;93161.50;;;17.01;46.41
35888;BME280;21990;42.540;23.496;2023-03-26T07:56:16;93160.47;;;16.89;47.78
35888;BME280;21990;42.540;23.496;2023-03-26T07:59:04;93158.91;;;17.13;48.37
35888;BME280;21990;42.540;23.496;2023-03-26T08:13:20;93153.94;;;16.79;46.84
35888;BME280;21990;42.540;23.496;2023-03-26T08:16:05;93137.72;;;16.72;44.88
35888;BME280;21990;42.540;23.496;2023-03-26T08:26:34;93142.91;;;16.83;43.53
35888;BME280;21990;42.540;23.496;2023-03-26T08:32:12;93134.88;;;16.72;43.27
35888;BME280;21990;42.540;23.496;2023-03-26T08:34:39;93146.75;;;16.78;43.46
35888;BME280;21990;42.540;23.496;2023-03-26T08:37:05;93146.66;;;16.68;43.72
35888;BME280;21990;42.540;23.496;2023-03-26T08:39:31;93151.94;;;16.72;39.81
35888;BME280;21990;42.540;23.496;2023-03-26T09:06:26;93141.44;;;16.32;40.45
35888;BME280;21990;42.540;23.496;2023-03-26T09:12:06;93157.53;;;16.37;39.70
35888;BME280;21990;42.540;23.496;2023-03-26T09:23:31;93144.31;;;16.57;40.90
35888;BME280;21990;42.540;23.496;2023-03-26T09:26:35;93153.22;;;16.53;39.09
35888;BME280;21990;42.540;23.496;2023-03-26T09:32:10;93140.31;;;16.52;41.80
35888;BME280;21990;42.540;23.496;2023-03-26T09:40:58;93131.59;;;16.75;38.73
35888;BME280;21990;42.540;23.496;2023-03-26T09:43:50;93136.81;;;16.86;39.82
35888;BME280;21990;42.540;23.496;2023-03-26T09:49:21;93134.59;;;16.60;36.52
35888;BME280;21990;42.540;23.496;2023-03-26T09:58:14;93132.53;;;16.95;40.80
35888;BME280;21990;42.540;23.496;2023-03-26T10:00:51;93136.63;;;17.01;38.90
35888;BME280;21990;42.540;23.496;2023-03-26T10:06:25;93112.53;;;17.02;37.60
35888;BME280;21990;42.540;23.496;2023-03-26T10:22:26;93113.78;;;16.92;37.72
35888;BME280;21990;42.540;23.496;2023-03-26T10:25:28;93105.00;;;16.80;35.72
35888;BME280;21990;42.540;23.496;2023-03-26T10:47:09;93073.44;;;16.86;38.26
35888;BME280;21990;42.540;23.496;2023-03-26T10:52:20;93067.50;;;16.91;38.03
35888;BME280;21990;42.540;23.496;2023-03-26T10:54:58;93062.63;;;17.01;38.63
35888;BME280;21990;42.540;23.496;2023-03-26T10:57:57;93056.59;;;16.97;37.39
35888;BME280;21990;42.540;23.496;2023-03-26T11:00:26;93052.34;;;16.89;36.64
35888;BME280;21990;42.540;23.496;2023-03-26T11:11:43;93053.47;;;16.76;37.29
35888;BME280;21990;42.540;23.496;2023-03-26T11:17:17;93046.75;;;16.81;39.58
35888;BME280;21990;42.540;23.496;2023-03-26T11:19:52;93039.19;;;16.93;39.13
35888;BME280;21990;42.540;23.496;2023-03-26T11:25:24;93026.63;;;17.14;37.96
35888;BME280;21990;42.540;23.496;2023-03-26T11:33:08;93020.50;;;17.17;35.86
35888;BME280;21990;42.540;23.496;2023-03-26T11:35:40;93012.03;;;17.27;36.36
35888;BME280;21990;42.540;23.496;2023-03-26T11:40:42;93019.91;;;17.19;35.91
35888;BME280;21990;42.540;23.496;2023-03-26T11:43:14;93029.56;;;17.06;35.54
35888;BME280;21990;42.540;23.496;2023-03-26T11:45:44;93010.59;;;16.91;35.35
35888;BME280;21990;42.540;23.496;2023-03-26T11:48:20;93014.69;;;16.98;36.17
35888;BME280;21990;42.540;23.496;2023-03-26T11:51:07;93009.06;;;17.07;35.89
35888;BME280;21990;42.540;23.496;2023-03-26T11:53:35;92994.75;;;16.98;34.42
35888;BME280;21990;42.540;23.496;2023-03-26T11:59:32;92979.75;;;16.97;32.75
35888;BME280;21990;42.540;23.496;2023-03-26T12:04:50;92970.66;;;16.99;32.07
35888;BME280;21990;42.540;23.496;2023-03-26T12:07:21;92965.44;;;17.05;34.17
35888;BME280;21990;42.540;23.496;2023-03-26T12:09:52;92951.97;;;17.05;34.58
35888;BME280;21990;42.540;23.496;2023-03-26T12:12:18;92959.91;;;17.07;33.43
35888;BME280;21990;42.540;23.496;2023-03-26T12:14:46;92944.94;;;17.06;31.79
35888;BME280;21990;42.540;23.496;2023-03-26T12:17:23;92942.09;;;17.06;32.99
35888;BME280;21990;42.540;23.496;2023-03-26T12:19:49;92936.38;;;17.06;32.45
35888;BME280;21990;42.540;23.496;2023-03-26T12:22:34;92934.78;;;17.13;32.65
35888;BME280;21990;42.540;23.496;2023-03-26T12:30:32;92929.19;;;17.05;30.62
35888;BME280;21990;42.540;23.496;2023-03-26T12:33:06;92920.06;;;17.07;31.90
35888;BME280;21990;42.540;23.496;2023-03-26T12:35:39;92920.81;;;17.07;32.68
35888;BME280;21990;42.540;23.496;2023-03-26T12:38:30;92917.25;;;17.17;33.47
35888;BME280;21990;42.540;23.496;2023-03-26T12:41:09;92913.50;;;17.14;31.84
35888;BME280;21990;42.540;23.496;2023-03-26T12:43:45;92912.94;;;17.25;32.13
35888;BME280;21990;42.540;23.496;2023-03-26T12:46:32;92903.72;;;17.34;32.55
35888;BME280;21990;42.540;23.496;2023-03-26T12:49:01;92906.06;;;17.28;31.24
35888;BME280;21990;42.540;23.496;2023-03-26T12:55:11;92891.38;;;17.32;32.70
35888;BME280;21990;42.540;23.496;2023-03-26T13:04:06;92896.06;;;17.37;31.68
35888;BME280;21990;42.540;23.496;2023-03-26T13:06:44;92879.41;;;17.33;32.13
35888;BME280;21990;42.540;23.496;2023-03-26T13:12:02;92877.16;;;17.32;31.64
35888;BME280;21990;42.540;23.496;2023-03-26T13:17:33;92873.25;;;17.27;30.80
35888;BME280;21990;42.540;23.496;2023-03-26T13:25:46;92854.69;;;17.26;30.54
35888;BME280;21990;42.540;23.496;2023-03-26T13:31:10;92857.66;;;17.28;28.55
35888;BME280;21990;42.540;23.496;2023-03-26T13:36:44;92865.13;;;17.14;29.52
35888;BME280;21990;42.540;23.496;2023-03-26T13:39:17;92862.09;;;17.12;28.44
35888;BME280;21990;42.540;23.496;2023-03-26T13:42:02;92859.56;;;17.16;28.95
35888;BME280;21990;42.540;23.496;2023-03-26T13:44:54;92857.03;;;17.20;26.36
35888;BME280;21990;42.540;23.496;2023-03-26T13:47:26;92864.66;;;17.18;27.76
35888;BME280;21990;42.540;23.496;2023-03-26T13:49:58;92859.25;;;17.12;28.14
35888;BME280;21990;42.540;23.496;2023-03-26T13:52:33;92866.13;;;17.09;29.60
35888;BME280;21990;42.540;23.496;2023-03-26T13:57:37;92854.88;;;17.01;29.18
35888;BME280;21990;42.540;23.496;2023-03-26T14:00:19;92853.88;;;17.16;27.39
35888;BME280;21990;42.540;23.496;2023-03-26T14:03:02;92856.09;;;17.08;27.59
35888;BME280;21990;42.540;23.496;2023-03-26T14:05:38;92850.38;;;16.98;26.50
35888;BME280;21990;42.540;23.496;2023-03-26T14:11:07;92858.25;;;16.90;27.64
35888;BME280;21990;42.540;23.496;2023-03-26T14:13:46;92854.53;;;16.97;27.92
35888;BME280;21990;42.540;23.496;2023-03-26T14:16:24;92844.63;;;16.89;27.08
35888;BME280;21990;42.540;23.496;2023-03-26T14:18:58;92843.03;;;16.95;27.14
35888;BME280;21990;42.540;23.496;2023-03-26T14:21:40;92834.94;;;17.01;26.69
35888;BME280;21990;42.540;23.496;2023-03-26T14:34:04;92837.66;;;16.73;27.83
35888;BME280;21990;42.540;23.496;2023-03-26T14:42:36;92824.56;;;16.60;28.68
35888;BME280;21990;42.540;23.496;2023-03-26T14:45:20;92838.69;;;16.50;29.12
35888;BME280;21990;42.540;23.496;2023-03-26T14:51:13;92825.88;;;16.32;28.57
35888;BME280;21990;42.540;23.496;2023-03-26T14:53:52;92833.22;;;16.35;29.42
35888;BME280;21990;42.540;23.496;2023-03-26T15:08:34;92830.53;;;15.93;30.80
35888;BME280;21990;42.540;23.496;2023-03-26T15:11:29;92833.19;;;15.74;31.46
35888;BME280;21990;42.540;23.496;2023-03-26T15:32:11;92836.22;;;15.17;33.31
35888;BME280;21990;42.540;23.496;2023-03-26T15:48:58;92836.19;;;14.67;35.56
35888;BME280;21990;42.540;23.496;2023-03-26T15:58:16;92844.00;;;14.59;36.00
35888;BME280;21990;42.540;23.496;2023-03-26T16:04:04;92849.75;;;14.44;35.90
35888;BME280;21990;42.540;23.496;2023-03-26T16:09:32;92850.72;;;14.47;36.80
35888;BME280;21990;42.540;23.496;2023-03-26T16:12:25;92853.72;;;14.49;36.90
35888;BME280;21990;42.540;23.496;2023-03-26T16:15:30;92852.59;;;14.44;36.39
35888;BME280;21990;42.540;23.496;2023-03-26T16:18:16;92860.94;;;14.42;37.83
35888;BME280;21990;42.540;23.496;2023-03-26T16:20:50;92862.47;;;14.28;38.00
35888;BME280;21990;42.540;23.496;2023-03-26T16:28:35;92865.63;;;14.00;39.02
35888;BME280;21990;42.540;23.496;2023-03-26T16:36:42;92878.88;;;13.90;40.46
35888;BME280;21990;42.540;23.496;2023-03-26T16:44:27;92878.56;;;13.63;42.64
35888;BME280;21990;42.540;23.496;2023-03-26T16:49:40;92876.94;;;13.37;43.32
35888;BME280;21990;42.540;23.496;2023-03-26T16:57:40;92880.88;;;13.04;45.61
35888;BME280;21990;42.540;23.496;2023-03-26T17:03:30;92880.31;;;12.82;46.73
35888;BME280;21990;42.540;23.496;2023-03-26T17:06:12;92881.59;;;12.59;47.28
35888;BME280;21990;42.540;23.496;2023-03-26T17:08:53;92890.63;;;12.50;47.51
35888;BME280;21990;42.540;23.496;2023-03-26T17:11:24;92893.63;;;12.36;47.95
35888;BME280;21990;42.540;23.496;2023-03-26T17:16:39;92902.03;;;12.14;49.53
35888;BME280;21990;42.540;23.496;2023-03-26T17:22:07;92903.66;;;11.94;50.00
35888;BME280;21990;42.540;23.496;2023-03-26T17:27:49;92912.19;;;11.73;49.02
35888;BME280;21990;42.540;23.496;2023-03-26T17:35:47;92906.22;;;11.56;51.29
35888;BME280;21990;42.540;23.496;2023-03-26T17:40:53;92919.63;;;11.35;52.25
35888;BME280;21990;42.540;23.496;2023-03-26T17:43:54;92913.72;;;11.25;52.94
35888;BME280;21990;42.540;23.496;2023-03-26T17:49:01;92914.78;;;11.15;53.56
35888;BME280;21990;42.540;23.496;2023-03-26T17:51:53;92915.50;;;11.08;54.67
35888;BME280;21990;42.540;23.496;2023-03-26T17:54:33;92906.56;;;10.96;54.54
35888;BME280;21990;42.540;23.496;2023-03-26T17:59:39;92909.94;;;10.74;53.30
35888;BME280;21990;42.540;23.496;2023-03-26T18:02:21;92910.97;;;10.63;54.31
35888;BME280;21990;42.540;23.496;2023-03-26T18:04:52;92913.56;;;10.40;53.59
35888;BME280;21990;42.540;23.496;2023-03-26T18:10:51;92912.53;;;10.30;52.11
35888;BME280;21990;42.540;23.496;2023-03-26T18:16:41;92914.28;;;10.20;53.87
35888;BME280;21990;42.540;23.496;2023-03-26T18:19:16;92912.56;;;10.17;53.32
35888;BME280;21990;42.540;23.496;2023-03-26T18:21:50;92908.34;;;10.11;53.15
35888;BME280;21990;42.540;23.496;2023-03-26T18:24:31;92907.50;;;10.02;53.26
35888;BME280;21990;42.540;23.496;2023-03-26T18:27:01;92911.50;;;10.07;53.19
35888;BME280;21990;42.540;23.496;2023-03-26T18:29:32;92916.03;;;10.10;54.80
35888;BME280;21990;42.540;23.496;2023-03-26T18:34:46;92905.38;;;9.69;55.60
35888;BME280;21990;42.540;23.496;2023-03-26T18:37:20;92903.22;;;9.75;55.22
35888;BME280;21990;42.540;23.496;2023-03-26T18:40:15;92897.94;;;9.72;55.91
35888;BME280;21990;42.540;23.496;2023-03-26T18:42:53;92895.78;;;9.65;55.52
35888;BME280;21990;42.540;23.496;2023-03-26T18:45:33;92884.75;;;9.67;55.92
35888;BME280;21990;42.540;23.496;2023-03-26T18:48:21;92881.72;;;9.51;57.85
35888;BME280;21990;42.540;23.496;2023-03-26T18:51:07;92876.09;;;9.51;57.62
35888;BME280;21990;42.540;23.496;2023-03-26T18:53:46;92875.34;;;9.38;57.12
35888;BME280;21990;42.540;23.496;2023-03-26T18:56:39;92878.84;;;9.18;56.65
35888;BME280;21990;42.540;23.496;2023-03-26T18:59:24;92880.50;;;8.68;60.49